CheckWX is a tool to help pilots better visualize weather data.  It is not intended as a substitute for an official pre-flight weather briefing.

22:39:47 UTC

KOGD TAF
Ogden-Hinckley Airport
Ogden, Utah, USA
KOGD 062023Z 0620/0718 31006KT 3SM HZ FEW045 TEMPO 0620/0624 2SM BR FM070200 16006KT 2SM BR OVC010 FM071200 17006KT 4SM BR SCT010 BKN035

Dec-6@
20:00 UTC

Dec-6 @ 20:00 UTC

Dec-7@
02:00 UTC

Dec-7 @ 02:00 UTC

KOGD 062023Z 0620/0718 31006KT 3SM HZ FEW045
Wind
  • 310° at 6 KTS
Conditions
Haze
Cloud Levels
  • Few at 4,500' AGL

Dec-6@
20:00 UTC

Dec-6 @ 20:00 UTC

Dec-7@
00:00 UTC

Dec-7 @ 00:00 UTC

TEMPO 0620/0624 2SM BR

Temporary

Temporary Changes expected for less than half the time period

Conditions
Mist

Dec-7@
02:00 UTC

Dec-7 @ 02:00 UTC

Dec-7@
12:00 UTC

Dec-7 @ 12:00 UTC

FM070200 16006KT 2SM BR OVC010

From

From Standard forecast or significant change

Wind
  • 160° at 6 KTS
Conditions
Mist
Cloud Levels
  • Overcast at 1,000' AGL

Dec-7@
12:00 UTC

Dec-7 @ 12:00 UTC

Dec-7@
18:00 UTC

Dec-7 @ 18:00 UTC

FM071200 17006KT 4SM BR SCT010 BKN035

From

From Standard forecast or significant change

Wind
  • 170° at 6 KTS
Conditions
Mist
Cloud Levels
  • Scattered at 1,000' AGL
  • Broken at 3,500' AGL